Terminal Aerodrome Forecast
Issued by NWS Upton, NY

Home | Current Version | Previous Version | Text Only | Print | Product List | Glossary On
Versions: 1 2 3 4 5 6 7 8 9 10 11 12 13 14 15 16 17 18 19 20 21 22 23 24 25 26 27 28 29 30 31 32
000
FTUS41 KOKX 192322
TAFISP
TAF
KISP 192322Z 2000/2024 30015G24KT P6SM BKN050
     FM200300 29013G20KT P6SM SCT050
     FM201300 28017G26KT P6SM SCT050
     FM202100 27014G21KT P6SM FEW050=

USA.gov is the U.S. government's official web portal to all federal, state and local government web resources and services.